Avant, Oklahoma
Current Conditions -  °F | °C
As of 9:53 PM on Sunday 23 Nov 2014 (Local Time) from KBVO Reporting Station
Overcast Overcast  
Wind Chill: 39°   Ceiling: 8500
Heat Index: 43°   Visibility: 10mi
Dew Point: 39°   Wind: 7mph
Humidity: 86%   Direction: NA
Pressure: 29.63"   Gusts: NA
Location:  36.49°N, 96.06°W
Report Text: KBVO 240353Z AUTO VRB06KT 10SM FEW060 OVC085 06/04 A2963 RMK AO2 RAE21 SLP031 P0001 T00610039
Loading
Personal Weather Stations






























Interactive Weather Map New forecast layout! Learn more

10-Day Weather Forecast

Advertisements
Track Severe Weather on mobile